sensor_id;sensor_type;location;lat;lon;timestamp;temperature;humidity
1830;DHT22;914;48.118;11.600;2023-04-03T00:01:14;4.50;99.90
1830;DHT22;914;48.118;11.600;2023-04-03T00:03:40;4.50;99.90
1830;DHT22;914;48.118;11.600;2023-04-03T00:06:07;4.30;99.90
1830;DHT22;914;48.118;11.600;2023-04-03T00:08:34;4.20;99.90
1830;DHT22;914;48.118;11.600;2023-04-03T00:11:00;4.30;99.90
1830;DHT22;914;48.118;11.600;2023-04-03T00:13:26;3.90;99.90
1830;DHT22;914;48.118;11.600;2023-04-03T00:15:52;4.10;99.90
1830;DHT22;914;48.118;11.600;2023-04-03T00:18:17;4.40;99.90
1830;DHT22;914;48.118;11.600;2023-04-03T00:20:44;4.60;99.90
1830;DHT22;914;48.118;11.600;2023-04-03T00:23:09;4.60;99.90
1830;DHT22;914;48.118;11.600;2023-04-03T00:25:35;4.20;99.90
1830;DHT22;914;48.118;11.600;2023-04-03T00:28:02;3.90;99.90
1830;DHT22;914;48.118;11.600;2023-04-03T00:30:30;4.00;99.90
1830;DHT22;914;48.118;11.600;2023-04-03T00:32:56;4.20;99.90
1830;DHT22;914;48.118;11.600;2023-04-03T00:35:23;4.50;99.90
1830;DHT22;914;48.118;11.600;2023-04-03T00:37:51;4.90;99.90
1830;DHT22;914;48.118;11.600;2023-04-03T00:40:18;5.00;99.90
1830;DHT22;914;48.118;11.600;2023-04-03T00:42:47;4.90;99.90
1830;DHT22;914;48.118;11.600;2023-04-03T00:45:37;5.10;99.90
1830;DHT22;914;48.118;11.600;2023-04-03T00:48:10;5.00;99.90
1830;DHT22;914;48.118;11.600;2023-04-03T00:50:39;4.80;99.90
1830;DHT22;914;48.118;11.600;2023-04-03T00:53:12;4.70;99.90
1830;DHT22;914;48.118;11.600;2023-04-03T00:55:39;3.90;99.90
1830;DHT22;914;48.118;11.600;2023-04-03T00:58:06;3.80;99.90
1830;DHT22;914;48.118;11.600;2023-04-03T01:00:34;3.80;99.90
1830;DHT22;914;48.118;11.600;2023-04-03T01:03:01;3.80;99.90
1830;DHT22;914;48.118;11.600;2023-04-03T01:05:27;4.00;99.90
1830;DHT22;914;48.118;11.600;2023-04-03T01:07:53;4.20;99.90
1830;DHT22;914;48.118;11.600;2023-04-03T01:10:19;4.50;99.90
1830;DHT22;914;48.118;11.600;2023-04-03T01:12:48;4.60;99.90
1830;DHT22;914;48.118;11.600;2023-04-03T01:15:23;4.60;99.90
1830;DHT22;914;48.118;11.600;2023-04-03T01:17:57;4.60;99.90
1830;DHT22;914;48.118;11.600;2023-04-03T01:25:46;4.10;99.90
1830;DHT22;914;48.118;11.600;2023-04-03T01:28:16;4.20;99.90
1830;DHT22;914;48.118;11.600;2023-04-03T01:33:34;3.50;99.90
1830;DHT22;914;48.118;11.600;2023-04-03T01:36:00;4.00;99.90
1830;DHT22;914;48.118;11.600;2023-04-03T01:38:26;4.20;99.90
1830;DHT22;914;48.118;11.600;2023-04-03T01:40:52;4.30;99.90
1830;DHT22;914;48.118;11.600;2023-04-03T01:43:17;4.20;99.90
1830;DHT22;914;48.118;11.600;2023-04-03T01:45:43;4.50;99.90
1830;DHT22;914;48.118;11.600;2023-04-03T01:48:09;4.40;99.90
1830;DHT22;914;48.118;11.600;2023-04-03T01:50:34;4.20;99.90
1830;DHT22;914;48.118;11.600;2023-04-03T01:53:00;4.00;99.90
1830;DHT22;914;48.118;11.600;2023-04-03T01:55:26;4.00;99.90
1830;DHT22;914;48.118;11.600;2023-04-03T01:57:51;4.20;99.90
1830;DHT22;914;48.118;11.600;2023-04-03T02:00:17;4.00;99.90
1830;DHT22;914;48.118;11.600;2023-04-03T02:02:43;4.30;99.90
1830;DHT22;914;48.118;11.600;2023-04-03T02:05:09;4.30;99.90
1830;DHT22;914;48.118;11.600;2023-04-03T02:07:34;4.30;99.90
1830;DHT22;914;48.118;11.600;2023-04-03T02:10:00;4.60;99.90
1830;DHT22;914;48.118;11.600;2023-04-03T02:12:26;4.60;99.90
1830;DHT22;914;48.118;11.600;2023-04-03T02:14:51;4.80;99.90
1830;DHT22;914;48.118;11.600;2023-04-03T02:17:17;4.80;99.90
1830;DHT22;914;48.118;11.600;2023-04-03T02:19:43;4.80;99.90
1830;DHT22;914;48.118;11.600;2023-04-03T02:22:08;4.40;99.90
1830;DHT22;914;48.118;11.600;2023-04-03T02:24:34;4.10;99.90
1830;DHT22;914;48.118;11.600;2023-04-03T02:27:00;4.20;99.90
1830;DHT22;914;48.118;11.600;2023-04-03T02:29:25;4.60;99.90
1830;DHT22;914;48.118;11.600;2023-04-03T02:31:51;4.70;99.90
1830;DHT22;914;48.118;11.600;2023-04-03T02:34:17;4.90;99.90
1830;DHT22;914;48.118;11.600;2023-04-03T02:36:43;5.00;99.90
1830;DHT22;914;48.118;11.600;2023-04-03T02:39:09;4.70;99.90
1830;DHT22;914;48.118;11.600;2023-04-03T02:41:35;4.40;99.90
1830;DHT22;914;48.118;11.600;2023-04-03T02:44:02;4.20;99.90
1830;DHT22;914;48.118;11.600;2023-04-03T02:46:28;4.40;99.90
1830;DHT22;914;48.118;11.600;2023-04-03T02:48:54;4.70;99.90
1830;DHT22;914;48.118;11.600;2023-04-03T02:51:19;4.70;99.90
1830;DHT22;914;48.118;11.600;2023-04-03T02:53:45;4.90;99.90
1830;DHT22;914;48.118;11.600;2023-04-03T02:56:11;4.30;99.90
1830;DHT22;914;48.118;11.600;2023-04-03T02:58:36;4.30;99.90
1830;DHT22;914;48.118;11.600;2023-04-03T03:01:02;4.40;99.90
1830;DHT22;914;48.118;11.600;2023-04-03T03:03:29;4.30;99.90
1830;DHT22;914;48.118;11.600;2023-04-03T03:06:05;4.30;99.90
1830;DHT22;914;48.118;11.600;2023-04-03T03:08:31;4.30;99.90
1830;DHT22;914;48.118;11.600;2023-04-03T03:10:57;4.10;99.90
1830;DHT22;914;48.118;11.600;2023-04-03T03:13:23;4.00;99.90
1830;DHT22;914;48.118;11.600;2023-04-03T03:15:48;4.20;99.90
1830;DHT22;914;48.118;11.600;2023-04-03T03:18:14;4.30;99.90
1830;DHT22;914;48.118;11.600;2023-04-03T03:20:40;4.40;99.90
1830;DHT22;914;48.118;11.600;2023-04-03T03:23:06;4.20;99.90
1830;DHT22;914;48.118;11.600;2023-04-03T03:25:32;3.70;99.90
1830;DHT22;914;48.118;11.600;2023-04-03T03:27:57;4.00;99.90
1830;DHT22;914;48.118;11.600;2023-04-03T03:30:23;4.00;99.90
1830;DHT22;914;48.118;11.600;2023-04-03T03:32:49;4.50;99.90
1830;DHT22;914;48.118;11.600;2023-04-03T03:35:14;4.50;99.90
1830;DHT22;914;48.118;11.600;2023-04-03T03:37:40;4.40;99.90
1830;DHT22;914;48.118;11.600;2023-04-03T03:40:06;4.10;99.90
1830;DHT22;914;48.118;11.600;2023-04-03T03:42:32;3.70;99.90
1830;DHT22;914;48.118;11.600;2023-04-03T03:44:57;3.60;99.90
1830;DHT22;914;48.118;11.600;2023-04-03T03:47:23;3.30;99.90
1830;DHT22;914;48.118;11.600;2023-04-03T03:49:49;3.20;99.90
1830;DHT22;914;48.118;11.600;2023-04-03T03:52:14;3.60;99.90
1830;DHT22;914;48.118;11.600;2023-04-03T03:54:40;3.80;99.90
1830;DHT22;914;48.118;11.600;2023-04-03T03:57:05;3.70;99.90
1830;DHT22;914;48.118;11.600;2023-04-03T03:59:31;3.80;99.90
1830;DHT22;914;48.118;11.600;2023-04-03T04:01:57;3.80;99.90
1830;DHT22;914;48.118;11.600;2023-04-03T04:04:22;4.00;99.90
1830;DHT22;914;48.118;11.600;2023-04-03T04:06:48;4.30;99.90
1830;DHT22;914;48.118;11.600;2023-04-03T04:09:14;4.60;99.90
1830;DHT22;914;48.118;11.600;2023-04-03T04:11:39;4.70;99.90
1830;DHT22;914;48.118;11.600;2023-04-03T04:14:06;4.90;99.90
1830;DHT22;914;48.118;11.600;2023-04-03T04:16:32;4.30;99.90
1830;DHT22;914;48.118;11.600;2023-04-03T04:18:58;4.30;99.90
1830;DHT22;914;48.118;11.600;2023-04-03T04:21:23;4.00;99.90
1830;DHT22;914;48.118;11.600;2023-04-03T04:23:49;3.70;99.90
1830;DHT22;914;48.118;11.600;2023-04-03T04:26:15;3.70;99.90
1830;DHT22;914;48.118;11.600;2023-04-03T04:28:41;4.10;99.90
1830;DHT22;914;48.118;11.600;2023-04-03T04:31:06;4.20;99.90
1830;DHT22;914;48.118;11.600;2023-04-03T04:33:32;4.10;99.90
1830;DHT22;914;48.118;11.600;2023-04-03T04:35:57;4.20;99.90
1830;DHT22;914;48.118;11.600;2023-04-03T04:38:23;3.90;99.90
1830;DHT22;914;48.118;11.600;2023-04-03T04:40:49;3.50;99.90
1830;DHT22;914;48.118;11.600;2023-04-03T04:43:15;3.50;99.90
1830;DHT22;914;48.118;11.600;2023-04-03T04:45:41;3.90;99.90
1830;DHT22;914;48.118;11.600;2023-04-03T04:48:07;3.90;99.90
1830;DHT22;914;48.118;11.600;2023-04-03T04:50:33;3.80;99.90
1830;DHT22;914;48.118;11.600;2023-04-03T04:52:59;4.10;99.90
1830;DHT22;914;48.118;11.600;2023-04-03T04:55:24;4.10;99.90
1830;DHT22;914;48.118;11.600;2023-04-03T04:57:50;4.50;99.90
1830;DHT22;914;48.118;11.600;2023-04-03T05:00:16;4.40;99.90
1830;DHT22;914;48.118;11.600;2023-04-03T05:02:43;4.20;99.90
1830;DHT22;914;48.118;11.600;2023-04-03T05:05:09;4.20;99.90
1830;DHT22;914;48.118;11.600;2023-04-03T05:07:34;4.50;99.90
1830;DHT22;914;48.118;11.600;2023-04-03T05:10:02;4.30;99.90
1830;DHT22;914;48.118;11.600;2023-04-03T05:12:28;4.20;99.90
1830;DHT22;914;48.118;11.600;2023-04-03T05:14:54;4.00;99.90
1830;DHT22;914;48.118;11.600;2023-04-03T05:17:19;4.10;99.90
1830;DHT22;914;48.118;11.600;2023-04-03T05:19:45;4.20;99.90
1830;DHT22;914;48.118;11.600;2023-04-03T05:22:11;4.20;99.90
1830;DHT22;914;48.118;11.600;2023-04-03T05:24:37;4.30;99.90
1830;DHT22;914;48.118;11.600;2023-04-03T05:27:02;4.20;99.90
1830;DHT22;914;48.118;11.600;2023-04-03T05:29:28;4.70;99.90
1830;DHT22;914;48.118;11.600;2023-04-03T05:31:54;4.70;99.90
1830;DHT22;914;48.118;11.600;2023-04-03T05:34:19;4.50;99.90
1830;DHT22;914;48.118;11.600;2023-04-03T05:36:45;4.40;99.90
1830;DHT22;914;48.118;11.600;2023-04-03T05:39:11;4.10;99.90
1830;DHT22;914;48.118;11.600;2023-04-03T05:41:37;3.80;99.90
1830;DHT22;914;48.118;11.600;2023-04-03T05:44:02;4.00;99.90
1830;DHT22;914;48.118;11.600;2023-04-03T05:46:28;3.80;99.90
1830;DHT22;914;48.118;11.600;2023-04-03T05:48:54;3.80;99.90
1830;DHT22;914;48.118;11.600;2023-04-03T05:51:23;4.50;99.90
1830;DHT22;914;48.118;11.600;2023-04-03T05:53:56;4.40;99.90
1830;DHT22;914;48.118;11.600;2023-04-03T05:56:28;4.00;99.90
1830;DHT22;914;48.118;11.600;2023-04-03T05:58:56;4.00;99.90
1830;DHT22;914;48.118;11.600;2023-04-03T06:01:22;3.70;99.90
1830;DHT22;914;48.118;11.600;2023-04-03T06:03:48;4.00;99.90
1830;DHT22;914;48.118;11.600;2023-04-03T06:06:14;3.60;99.90
1830;DHT22;914;48.118;11.600;2023-04-03T06:08:41;3.80;99.90
1830;DHT22;914;48.118;11.600;2023-04-03T06:11:06;4.00;99.90
1830;DHT22;914;48.118;11.600;2023-04-03T06:13:34;3.70;99.90
1830;DHT22;914;48.118;11.600;2023-04-03T06:16:00;3.70;99.90
1830;DHT22;914;48.118;11.600;2023-04-03T06:18:26;3.70;99.90
1830;DHT22;914;48.118;11.600;2023-04-03T06:20:52;3.60;99.90
1830;DHT22;914;48.118;11.600;2023-04-03T06:23:17;3.80;99.90
1830;DHT22;914;48.118;11.600;2023-04-03T06:25:43;4.00;99.90
1830;DHT22;914;48.118;11.600;2023-04-03T06:28:09;4.20;99.90
1830;DHT22;914;48.118;11.600;2023-04-03T06:30:36;4.20;99.90
1830;DHT22;914;48.118;11.600;2023-04-03T06:33:02;4.30;99.90
1830;DHT22;914;48.118;11.600;2023-04-03T06:35:28;4.00;99.90
1830;DHT22;914;48.118;11.600;2023-04-03T06:37:58;4.10;99.90
1830;DHT22;914;48.118;11.600;2023-04-03T06:40:25;4.30;99.90
1830;DHT22;914;48.118;11.600;2023-04-03T06:42:51;4.50;99.90
1830;DHT22;914;48.118;11.600;2023-04-03T06:45:17;4.70;99.90
1830;DHT22;914;48.118;11.600;2023-04-03T06:47:43;4.10;99.90
1830;DHT22;914;48.118;11.600;2023-04-03T06:50:10;4.20;99.90
1830;DHT22;914;48.118;11.600;2023-04-03T06:52:37;4.60;99.90
1830;DHT22;914;48.118;11.600;2023-04-03T06:55:07;4.60;99.90
1830;DHT22;914;48.118;11.600;2023-04-03T06:57:33;4.80;99.90
1830;DHT22;914;48.118;11.600;2023-04-03T06:59:59;4.60;99.90
1830;DHT22;914;48.118;11.600;2023-04-03T07:02:25;4.30;99.90
1830;DHT22;914;48.118;11.600;2023-04-03T07:04:51;4.60;99.90
1830;DHT22;914;48.118;11.600;2023-04-03T07:07:17;5.10;99.90
1830;DHT22;914;48.118;11.600;2023-04-03T07:09:43;5.10;99.90
1830;DHT22;914;48.118;11.600;2023-04-03T07:12:09;4.40;99.90
1830;DHT22;914;48.118;11.600;2023-04-03T07:14:35;4.10;99.90
1830;DHT22;914;48.118;11.600;2023-04-03T07:17:01;4.30;99.90
1830;DHT22;914;48.118;11.600;2023-04-03T07:19:26;4.90;99.90
1830;DHT22;914;48.118;11.600;2023-04-03T07:21:53;4.60;99.90
1830;DHT22;914;48.118;11.600;2023-04-03T07:24:19;5.00;99.90
1830;DHT22;914;48.118;11.600;2023-04-03T07:26:49;4.50;99.90
1830;DHT22;914;48.118;11.600;2023-04-03T07:29:15;4.40;99.90
1830;DHT22;914;48.118;11.600;2023-04-03T07:31:41;4.40;99.90
1830;DHT22;914;48.118;11.600;2023-04-03T07:34:07;4.30;99.90
1830;DHT22;914;48.118;11.600;2023-04-03T07:36:33;4.20;99.90
1830;DHT22;914;48.118;11.600;2023-04-03T07:38:59;4.70;99.90
1830;DHT22;914;48.118;11.600;2023-04-03T07:41:24;4.80;99.90
1830;DHT22;914;48.118;11.600;2023-04-03T07:43:50;4.70;99.90
1830;DHT22;914;48.118;11.600;2023-04-03T07:46:16;4.10;99.90
1830;DHT22;914;48.118;11.600;2023-04-03T07:48:43;4.40;99.90
1830;DHT22;914;48.118;11.600;2023-04-03T07:51:09;5.20;99.90
1830;DHT22;914;48.118;11.600;2023-04-03T07:53:36;5.20;99.90
1830;DHT22;914;48.118;11.600;2023-04-03T07:56:04;4.60;99.90
1830;DHT22;914;48.118;11.600;2023-04-03T07:58:32;4.20;99.90
1830;DHT22;914;48.118;11.600;2023-04-03T08:00:58;4.40;99.90
1830;DHT22;914;48.118;11.600;2023-04-03T08:03:24;4.10;99.90
1830;DHT22;914;48.118;11.600;2023-04-03T08:05:50;4.20;99.90
1830;DHT22;914;48.118;11.600;2023-04-03T08:08:19;3.80;99.90
1830;DHT22;914;48.118;11.600;2023-04-03T08:10:51;3.90;99.90
1830;DHT22;914;48.118;11.600;2023-04-03T08:13:18;3.80;99.90
1830;DHT22;914;48.118;11.600;2023-04-03T08:15:44;4.10;99.90
1830;DHT22;914;48.118;11.600;2023-04-03T08:18:10;4.40;99.90
1830;DHT22;914;48.118;11.600;2023-04-03T08:20:37;4.60;99.90
1830;DHT22;914;48.118;11.600;2023-04-03T08:23:03;4.70;99.90
1830;DHT22;914;48.118;11.600;2023-04-03T08:25:29;4.70;99.90
1830;DHT22;914;48.118;11.600;2023-04-03T08:27:56;4.80;99.90
1830;DHT22;914;48.118;11.600;2023-04-03T08:30:21;5.20;99.90
1830;DHT22;914;48.118;11.600;2023-04-03T08:32:47;4.90;99.90
1830;DHT22;914;48.118;11.600;2023-04-03T08:35:13;5.20;99.90
1830;DHT22;914;48.118;11.600;2023-04-03T08:37:39;5.30;99.50
1830;DHT22;914;48.118;11.600;2023-04-03T08:40:06;5.80;98.90
1830;DHT22;914;48.118;11.600;2023-04-03T08:45:43;5.00;98.60
1830;DHT22;914;48.118;11.600;2023-04-03T08:48:18;5.00;99.90
1830;DHT22;914;48.118;11.600;2023-04-03T08:50:51;5.90;99.20
1830;DHT22;914;48.118;11.600;2023-04-03T08:53:21;5.90;97.80
1830;DHT22;914;48.118;11.600;2023-04-03T08:55:49;6.20;97.00
1830;DHT22;914;48.118;11.600;2023-04-03T08:58:23;5.50;95.60
1830;DHT22;914;48.118;11.600;2023-04-03T09:01:02;5.50;98.20
1830;DHT22;914;48.118;11.600;2023-04-03T09:03:38;4.60;98.70
1830;DHT22;914;48.118;11.600;2023-04-03T09:06:18;4.10;99.60
1830;DHT22;914;48.118;11.600;2023-04-03T09:09:07;4.90;99.90
1830;DHT22;914;48.118;11.600;2023-04-03T09:18:15;6.70;96.70
1830;DHT22;914;48.118;11.600;2023-04-03T09:20:54;7.00;96.30
1830;DHT22;914;48.118;11.600;2023-04-03T09:23:44;7.00;95.80
1830;DHT22;914;48.118;11.600;2023-04-03T09:26:21;7.30;94.80
1830;DHT22;914;48.118;11.600;2023-04-03T09:28:48;6.70;94.20
1830;DHT22;914;48.118;11.600;2023-04-03T09:31:21;6.20;95.50
1830;DHT22;914;48.118;11.600;2023-04-03T09:33:54;6.40;96.00
1830;DHT22;914;48.118;11.600;2023-04-03T09:39:19;6.20;95.60
1830;DHT22;914;48.118;11.600;2023-04-03T09:41:59;6.30;96.40
1830;DHT22;914;48.118;11.600;2023-04-03T09:44:54;6.70;95.60
1830;DHT22;914;48.118;11.600;2023-04-03T09:47:25;6.30;95.60
1830;DHT22;914;48.118;11.600;2023-04-03T09:52:35;5.90;94.60
1830;DHT22;914;48.118;11.600;2023-04-03T09:55:07;5.90;94.70
1830;DHT22;914;48.118;11.600;2023-04-03T09:57:33;5.90;95.00
1830;DHT22;914;48.118;11.600;2023-04-03T10:00:01;6.60;94.70
1830;DHT22;914;48.118;11.600;2023-04-03T10:02:40;6.90;93.50
1830;DHT22;914;48.118;11.600;2023-04-03T10:05:38;7.30;92.90
1830;DHT22;914;48.118;11.600;2023-04-03T10:10:45;6.80;92.70
1830;DHT22;914;48.118;11.600;2023-04-03T10:13:20;6.90;93.50
1830;DHT22;914;48.118;11.600;2023-04-03T10:15:59;6.80;93.30
1830;DHT22;914;48.118;11.600;2023-04-03T10:29:31;5.60;95.90
1830;DHT22;914;48.118;11.600;2023-04-03T10:38:23;5.80;96.60
1830;DHT22;914;48.118;11.600;2023-04-03T10:41:07;6.30;96.80
1830;DHT22;914;48.118;11.600;2023-04-03T10:43:45;5.90;95.20
1830;DHT22;914;48.118;11.600;2023-04-03T10:46:45;5.40;96.30
1830;DHT22;914;48.118;11.600;2023-04-03T10:57:41;4.00;99.90
1830;DHT22;914;48.118;11.600;2023-04-03T11:00:16;4.20;99.90
1830;DHT22;914;48.118;11.600;2023-04-03T11:03:03;3.90;99.90
1830;DHT22;914;48.118;11.600;2023-04-03T11:05:45;3.90;99.90
1830;DHT22;914;48.118;11.600;2023-04-03T11:10:53;4.50;99.90
1830;DHT22;914;48.118;11.600;2023-04-03T11:16:03;4.70;99.90
1830;DHT22;914;48.118;11.600;2023-04-03T11:18:44;5.00;99.90
1830;DHT22;914;48.118;11.600;2023-04-03T11:21:36;4.90;99.40
1830;DHT22;914;48.118;11.600;2023-04-03T11:24:06;5.20;99.90
1830;DHT22;914;48.118;11.600;2023-04-03T11:26:42;5.60;99.40
1830;DHT22;914;48.118;11.600;2023-04-03T11:29:21;6.20;98.70
1830;DHT22;914;48.118;11.600;2023-04-03T11:32:15;6.30;95.00
1830;DHT22;914;48.118;11.600;2023-04-03T11:34:49;6.10;93.40
1830;DHT22;914;48.118;11.600;2023-04-03T11:37:29;6.00;93.80
1830;DHT22;914;48.118;11.600;2023-04-03T11:40:02;5.20;91.60
1830;DHT22;914;48.118;11.600;2023-04-03T11:42:37;5.00;94.00
1830;DHT22;914;48.118;11.600;2023-04-03T11:45:35;5.40;94.70
1830;DHT22;914;48.118;11.600;2023-04-03T11:50:44;5.40;94.10
1830;DHT22;914;48.118;11.600;2023-04-03T11:58:31;6.00;93.80
1830;DHT22;914;48.118;11.600;2023-04-03T12:01:00;5.50;92.90
1830;DHT22;914;48.118;11.600;2023-04-03T12:05:53;5.70;93.60
1830;DHT22;914;48.118;11.600;2023-04-03T12:08:28;5.60;91.40
1830;DHT22;914;48.118;11.600;2023-04-03T12:16:29;6.30;89.80
1830;DHT22;914;48.118;11.600;2023-04-03T12:29:17;7.30;86.30
1830;DHT22;914;48.118;11.600;2023-04-03T12:34:50;6.80;80.80
1830;DHT22;914;48.118;11.600;2023-04-03T12:37:40;6.50;82.00
1830;DHT22;914;48.118;11.600;2023-04-03T12:40:24;6.30;83.80
1830;DHT22;914;48.118;11.600;2023-04-03T12:46:02;7.30;81.00
1830;DHT22;914;48.118;11.600;2023-04-03T12:48:30;7.80;81.40
1830;DHT22;914;48.118;11.600;2023-04-03T12:50:58;8.20;78.50
1830;DHT22;914;48.118;11.600;2023-04-03T12:53:29;8.60;77.40
1830;DHT22;914;48.118;11.600;2023-04-03T12:56:19;8.50;77.50
1830;DHT22;914;48.118;11.600;2023-04-03T12:58:47;8.50;73.50
1830;DHT22;914;48.118;11.600;2023-04-03T13:01:18;8.60;75.00
1830;DHT22;914;48.118;11.600;2023-04-03T13:03:48;9.20;76.70
1830;DHT22;914;48.118;11.600;2023-04-03T13:06:27;9.50;75.20
1830;DHT22;914;48.118;11.600;2023-04-03T13:08:59;9.50;70.40
1830;DHT22;914;48.118;11.600;2023-04-03T13:11:29;8.60;69.80
1830;DHT22;914;48.118;11.600;2023-04-03T13:14:02;9.20;75.20
1830;DHT22;914;48.118;11.600;2023-04-03T13:16:31;9.20;75.90
1830;DHT22;914;48.118;11.600;2023-04-03T13:18:57;8.90;72.50
1830;DHT22;914;48.118;11.600;2023-04-03T13:21:28;9.00;74.10
1830;DHT22;914;48.118;11.600;2023-04-03T13:23:59;9.60;73.10
1830;DHT22;914;48.118;11.600;2023-04-03T13:26:29;9.60;64.90
1830;DHT22;914;48.118;11.600;2023-04-03T13:29:01;8.80;66.70
1830;DHT22;914;48.118;11.600;2023-04-03T13:31:32;8.50;67.20
1830;DHT22;914;48.118;11.600;2023-04-03T13:34:35;8.70;73.50
1830;DHT22;914;48.118;11.600;2023-04-03T13:39:23;8.70;69.30
1830;DHT22;914;48.118;11.600;2023-04-03T13:41:52;9.20;68.40
1830;DHT22;914;48.118;11.600;2023-04-03T13:46:51;8.20;69.80
1830;DHT22;914;48.118;11.600;2023-04-03T13:49:36;7.30;71.30
1830;DHT22;914;48.118;11.600;2023-04-03T13:52:30;6.90;71.80
1830;DHT22;914;48.118;11.600;2023-04-03T13:54:59;6.80;72.10
1830;DHT22;914;48.118;11.600;2023-04-03T13:57:26;6.90;71.90
1830;DHT22;914;48.118;11.600;2023-04-03T13:59:52;6.80;72.50
1830;DHT22;914;48.118;11.600;2023-04-03T14:02:33;6.70;72.30
1830;DHT22;914;48.118;11.600;2023-04-03T14:05:01;7.10;74.10
1830;DHT22;914;48.118;11.600;2023-04-03T14:07:29;7.50;71.50
1830;DHT22;914;48.118;11.600;2023-04-03T14:09:56;7.60;69.10
1830;DHT22;914;48.118;11.600;2023-04-03T14:12:36;7.50;69.50
1830;DHT22;914;48.118;11.600;2023-04-03T14:15:15;7.60;68.90
1830;DHT22;914;48.118;11.600;2023-04-03T14:17:42;7.40;68.20
1830;DHT22;914;48.118;11.600;2023-04-03T14:20:15;7.40;68.80
1830;DHT22;914;48.118;11.600;2023-04-03T14:22:41;7.60;68.40
1830;DHT22;914;48.118;11.600;2023-04-03T14:25:07;7.80;67.70
1830;DHT22;914;48.118;11.600;2023-04-03T14:27:38;8.10;69.30
1830;DHT22;914;48.118;11.600;2023-04-03T14:30:07;8.40;67.20
1830;DHT22;914;48.118;11.600;2023-04-03T14:32:33;8.30;67.50
1830;DHT22;914;48.118;11.600;2023-04-03T14:34:59;8.30;65.10
1830;DHT22;914;48.118;11.600;2023-04-03T14:37:28;7.40;64.60
1830;DHT22;914;48.118;11.600;2023-04-03T14:39:56;6.30;67.30
1830;DHT22;914;48.118;11.600;2023-04-03T14:42:28;6.30;69.60
1830;DHT22;914;48.118;11.600;2023-04-03T14:44:55;7.10;70.20
1830;DHT22;914;48.118;11.600;2023-04-03T14:47:23;7.70;67.80
1830;DHT22;914;48.118;11.600;2023-04-03T14:49:50;7.70;66.00
1830;DHT22;914;48.118;11.600;2023-04-03T14:52:24;8.10;67.40
1830;DHT22;914;48.118;11.600;2023-04-03T14:54:50;8.50;66.90
1830;DHT22;914;48.118;11.600;2023-04-03T14:57:17;8.70;66.10
1830;DHT22;914;48.118;11.600;2023-04-03T14:59:44;8.30;64.80
1830;DHT22;914;48.118;11.600;2023-04-03T15:04:48;9.30;64.80
1830;DHT22;914;48.118;11.600;2023-04-03T15:07:14;8.60;60.60
1830;DHT22;914;48.118;11.600;2023-04-03T15:09:39;8.80;61.50
1830;DHT22;914;48.118;11.600;2023-04-03T15:12:07;8.40;63.30
1830;DHT22;914;48.118;11.600;2023-04-03T15:14:33;7.70;62.00
1830;DHT22;914;48.118;11.600;2023-04-03T15:16:59;6.90;62.60
1830;DHT22;914;48.118;11.600;2023-04-03T15:19:24;7.00;63.40
1830;DHT22;914;48.118;11.600;2023-04-03T15:21:50;7.00;62.80
1830;DHT22;914;48.118;11.600;2023-04-03T15:24:16;6.90;61.60
1830;DHT22;914;48.118;11.600;2023-04-03T15:26:42;6.80;61.30
1830;DHT22;914;48.118;11.600;2023-04-03T15:29:07;6.90;62.40
1830;DHT22;914;48.118;11.600;2023-04-03T15:31:33;6.90;61.50
1830;DHT22;914;48.118;11.600;2023-04-03T15:33:59;6.80;61.60
1830;DHT22;914;48.118;11.600;2023-04-03T15:36:25;6.50;62.40
1830;DHT22;914;48.118;11.600;2023-04-03T15:38:51;6.70;64.00
1830;DHT22;914;48.118;11.600;2023-04-03T15:41:18;6.90;64.70
1830;DHT22;914;48.118;11.600;2023-04-03T15:43:44;7.40;64.30
1830;DHT22;914;48.118;11.600;2023-04-03T15:46:09;7.50;62.10
1830;DHT22;914;48.118;11.600;2023-04-03T15:48:36;7.70;61.60
1830;DHT22;914;48.118;11.600;2023-04-03T15:51:02;7.40;59.80
1830;DHT22;914;48.118;11.600;2023-04-03T15:53:28;7.30;59.80
1830;DHT22;914;48.118;11.600;2023-04-03T15:55:53;7.00;59.30
1830;DHT22;914;48.118;11.600;2023-04-03T15:58:19;6.80;58.90
1830;DHT22;914;48.118;11.600;2023-04-03T16:00:45;7.00;59.60
1830;DHT22;914;48.118;11.600;2023-04-03T16:03:12;7.00;59.70
1830;DHT22;914;48.118;11.600;2023-04-03T16:05:42;7.30;59.10
1830;DHT22;914;48.118;11.600;2023-04-03T16:08:08;6.30;57.60
1830;DHT22;914;48.118;11.600;2023-04-03T16:10:35;6.20;57.80
1830;DHT22;914;48.118;11.600;2023-04-03T16:13:02;6.40;59.40
1830;DHT22;914;48.118;11.600;2023-04-03T16:15:28;6.40;59.30
1830;DHT22;914;48.118;11.600;2023-04-03T16:17:54;6.40;59.90
1830;DHT22;914;48.118;11.600;2023-04-03T16:20:20;6.10;60.70
1830;DHT22;914;48.118;11.600;2023-04-03T16:22:47;6.30;62.10
1830;DHT22;914;48.118;11.600;2023-04-03T16:25:13;6.60;62.50
1830;DHT22;914;48.118;11.600;2023-04-03T16:27:39;6.50;61.20
1830;DHT22;914;48.118;11.600;2023-04-03T16:30:06;6.10;60.80
1830;DHT22;914;48.118;11.600;2023-04-03T16:32:32;6.00;62.30
1830;DHT22;914;48.118;11.600;2023-04-03T16:34:58;6.10;63.60
1830;DHT22;914;48.118;11.600;2023-04-03T16:37:24;6.20;63.10
1830;DHT22;914;48.118;11.600;2023-04-03T16:39:50;6.50;62.90
1830;DHT22;914;48.118;11.600;2023-04-03T16:42:16;6.70;61.60
1830;DHT22;914;48.118;11.600;2023-04-03T16:44:42;6.40;60.00
1830;DHT22;914;48.118;11.600;2023-04-03T16:47:08;6.00;60.90
1830;DHT22;914;48.118;11.600;2023-04-03T16:49:34;5.90;60.70
1830;DHT22;914;48.118;11.600;2023-04-03T16:52:02;5.90;61.30
1830;DHT22;914;48.118;11.600;2023-04-03T16:54:28;5.40;61.60
1830;DHT22;914;48.118;11.600;2023-04-03T16:56:54;5.90;61.40
1830;DHT22;914;48.118;11.600;2023-04-03T16:59:19;6.10;61.50
1830;DHT22;914;48.118;11.600;2023-04-03T17:01:45;6.30;61.70
1830;DHT22;914;48.118;11.600;2023-04-03T17:04:11;6.40;61.40
1830;DHT22;914;48.118;11.600;2023-04-03T17:06:38;6.10;63.00
1830;DHT22;914;48.118;11.600;2023-04-03T17:09:04;5.60;64.40
1830;DHT22;914;48.118;11.600;2023-04-03T17:11:31;5.70;65.60
1830;DHT22;914;48.118;11.600;2023-04-03T17:13:57;6.10;64.20
1830;DHT22;914;48.118;11.600;2023-04-03T17:16:26;6.20;65.60
1830;DHT22;914;48.118;11.600;2023-04-03T17:18:52;6.00;64.10
1830;DHT22;914;48.118;11.600;2023-04-03T17:21:19;6.10;65.40
1830;DHT22;914;48.118;11.600;2023-04-03T17:23:49;5.80;64.90
1830;DHT22;914;48.118;11.600;2023-04-03T17:26:18;6.20;65.50
1830;DHT22;914;48.118;11.600;2023-04-03T17:28:44;6.30;63.80
1830;DHT22;914;48.118;11.600;2023-04-03T17:31:09;5.80;65.40
1830;DHT22;914;48.118;11.600;2023-04-03T17:33:35;5.70;66.20
1830;DHT22;914;48.118;11.600;2023-04-03T17:36:02;5.60;66.20
1830;DHT22;914;48.118;11.600;2023-04-03T17:38:30;5.50;66.80
1830;DHT22;914;48.118;11.600;2023-04-03T17:41:00;5.80;67.70
1830;DHT22;914;48.118;11.600;2023-04-03T17:43:27;6.20;67.30
1830;DHT22;914;48.118;11.600;2023-04-03T17:45:53;6.10;65.10
1830;DHT22;914;48.118;11.600;2023-04-03T17:48:20;5.90;66.30
1830;DHT22;914;48.118;11.600;2023-04-03T17:50:46;5.90;68.10
1830;DHT22;914;48.118;11.600;2023-04-03T17:53:11;6.00;66.10
1830;DHT22;914;48.118;11.600;2023-04-03T17:55:39;5.60;65.80
1830;DHT22;914;48.118;11.600;2023-04-03T17:58:05;5.00;65.90
1830;DHT22;914;48.118;11.600;2023-04-03T18:00:31;5.50;67.30
1830;DHT22;914;48.118;11.600;2023-04-03T18:02:57;5.40;66.80